Latest Weather Observations for North Head

IDN60801

Issued at 4:03 pm EST Monday 25 September 2017 (issued every 30 minutes, with the page automatically refreshed every 10 minutes)

About weather observations | Map of weather stations | Latest weather observations for NSW | Other Formats
Station Details ID: 066197 Name: NORTH HEAD Lat: -33.82 Lon: 151.30 Height: 90.0 m
Data from the previous 72 hours. | See also: Recent months for locations in New South Wales
Date/Time
EST
Temp
°C
App
Temp
°C
Dew
Point
°C
Rel
Hum
%
Delta-T
°C
Wind Press
QNH
hPa
Press
MSL
hPa
Rain since
9am
mm
Dir  Spd
km/h
Gust
km/h
Spd
kts
Gust
kts
25/04:00pm - - - - - WNW 35 56 19 30 - - -
25/03:30pm - - - - - WNW 30 48 16 26 - - -
25/03:00pm - - - - - WNW 35 57 19 31 - - -
25/02:30pm - - - - - NW 28 50 15 27 - - -
25/02:00pm - - - - - WNW 28 46 15 25 - - -
25/01:30pm - - - - - WNW 24 44 13 24 - - -
25/01:00pm - - - - - WNW 24 39 13 21 - - -
25/12:51pm - - - - - WNW 30 50 16 27 - - -
25/12:30pm - - - - - W 20 43 11 23 - - -
25/12:00pm - - - - - W 24 37 13 20 - - -
25/11:30am - - - - - WNW 24 46 13 25 - - -
25/11:00am - - - - - W 17 41 9 22 - - -
25/10:30am - - - - - W 13 22 7 12 - - -
25/10:00am - - - - - W 15 26 8 14 - - -
25/09:30am - - - - - WSW 11 17 6 9 - - -
25/09:00am - - - - - WSW 9 19 5 10 - - -
25/08:30am - - - - - W 7 15 4 8 - - -
25/08:00am - - - - - NW 6 9 3 5 - - -
25/07:30am - - - - - W 6 7 3 4 - - -
25/07:00am - - - - - W 6 9 3 5 - - -
25/06:30am - - - - - WNW 7 9 4 5 - - -
25/06:00am - - - - - W 11 15 6 8 - - -
25/05:30am - - - - - W 13 17 7 9 - - -
25/05:00am - - - - - WNW 11 17 6 9 - - -
25/04:30am - - - - - NW 11 15 6 8 - - -
25/04:00am - - - - - NW 11 15 6 8 - - -
25/03:30am - - - - - NW 13 17 7 9 - - -
25/03:00am - - - - - NW 13 19 7 10 - - -
25/02:30am - - - - - NW 13 15 7 8 - - -
25/02:00am - - - - - NW 11 15 6 8 - - -
25/01:30am - - - - - NW 11 15 6 8 - - -
25/01:00am - - - - - NW 11 17 6 9 - - -
25/12:30am - - - - - NW 13 19 7 10 - - -
25/12:00am - - - - - NW 11 15 6 8 - - -
 
Date/Time
EST
Temp
°C
App
Temp
°C
Dew
Point
°C
Rel
Hum
%
Delta-T
°C
Wind Press
QNH
hPa
Press
MSL
hPa
Rain since
9am
mm
Dir  Spd
km/h
Gust
km/h
Spd
kts
Gust
kts
24/11:30pm - - - - - NW 11 15 6 8 - - -
24/11:00pm - - - - - NW 13 19 7 10 - - -
24/10:30pm - - - - - NW 13 17 7 9 - - -
24/10:00pm - - - - - NW 13 15 7 8 - - -
24/09:30pm - - - - - NW 11 15 6 8 - - -
24/09:00pm - - - - - WNW 13 15 7 8 - - -
24/08:30pm - - - - - WNW 13 17 7 9 - - -
24/08:00pm - - - - - W 15 22 8 12 - - -
24/07:30pm - - - - - WNW 13 19 7 10 - - -
24/07:00pm - - - - - W 13 17 7 9 - - -
24/06:30pm - - - - - WNW 13 20 7 11 - - -
24/06:00pm - - - - - WNW 19 28 10 15 - - -
24/05:30pm - - - - - WNW 20 30 11 16 - - -
24/05:00pm - - - - - WNW 26 43 14 23 - - -
24/04:31pm - - - - - WNW 28 46 15 25 - - -
24/04:30pm - - - - - WNW 30 46 16 25 - - -
24/04:11pm - - - - - WNW 28 50 15 27 - - -
24/04:00pm - - - - - WNW 28 41 15 22 - - -
24/03:44pm - - - - - WNW 30 48 16 26 - - -
24/03:30pm - - - - - W 28 43 15 23 - - -
24/03:16pm - - - - - WNW 28 50 15 27 - - -
24/03:00pm - - - - - WNW 24 39 13 21 - - -
24/02:30pm - - - - - NW 24 39 13 21 - - -
24/02:00pm - - - - - WNW 20 37 11 20 - - -
24/01:30pm - - - - - NW 19 32 10 17 - - -
24/01:00pm - - - - - NW 19 32 10 17 - - -
24/12:30pm - - - - - WNW 22 39 12 21 - - -
24/12:00pm - - - - - WNW 22 33 12 18 - - -
24/11:30am - - - - - WNW 20 35 11 19 - - -
24/11:00am - - - - - W 22 37 12 20 - - -
24/10:30am - - - - - W 19 28 10 15 - - -
24/10:00am - - - - - WSW 19 33 10 18 - - -
24/09:30am - - - - - WSW 22 32 12 17 - - -
24/09:00am - - - - - WSW 15 24 8 13 - - -
24/08:30am - - - - - WSW 15 24 8 13 - - -
24/08:00am - - - - - SW 17 24 9 13 - - -
24/07:30am - - - - - WSW 17 26 9 14 - - -
24/07:00am - - - - - W 20 33 11 18 - - -
24/06:30am - - - - - WNW 24 39 13 21 - - -
24/06:00am - - - - - NW 28 48 15 26 - - -
24/05:54am - - - - - NW 28 48 15 26 - - -
24/05:30am - - - - - NW 19 30 10 16 - - -
24/05:00am - - - - - NW 15 24 8 13 - - -
24/04:30am - - - - - NNW 17 24 9 13 - - -
24/04:00am - - - - - NW 15 24 8 13 - - -
24/03:30am - - - - - WNW 11 17 6 9 - - -
24/03:00am - - - - - NNW 15 24 8 13 - - -
24/02:30am - - - - - N 15 24 8 13 - - -
24/02:00am - - - - - N 20 32 11 17 - - -
24/01:30am - - - - - N 17 24 9 13 - - -
24/01:00am - - - - - N 17 28 9 15 - - -
24/12:30am - - - - - N 24 33 13 18 - - -
24/12:00am - - - - - N 20 30 11 16 - - -
 
Date/Time
EST
Temp
°C
App
Temp
°C
Dew
Point
°C
Rel
Hum
%
Delta-T
°C
Wind Press
QNH
hPa
Press
MSL
hPa
Rain since
9am
mm
Dir  Spd
km/h
Gust
km/h
Spd
kts
Gust
kts
23/11:30pm - - - - - N 20 32 11 17 - - -
23/11:00pm - - - - - N 17 22 9 12 - - -
23/10:30pm - - - - - N 19 26 10 14 - - -
23/10:00pm - - - - - N 20 30 11 16 - - -
23/09:30pm - - - - - N 19 28 10 15 - - -
23/09:00pm - - - - - NNE 19 22 10 12 - - -
23/08:30pm - - - - - N 20 30 11 16 - - -
23/08:00pm - - - - - N 19 24 10 13 - - -
23/07:30pm - - - - - NNE 20 28 11 15 - - -
23/07:00pm - - - - - NNE 20 26 11 14 - - -
23/06:30pm - - - - - NNE 20 26 11 14 - - -
23/06:00pm - - - - - NNE 24 35 13 19 - - -
23/05:30pm - - - - - NNE 26 39 14 21 - - -
23/05:00pm - - - - - N 28 39 15 21 - - -
23/04:30pm - - - - - N 28 44 15 24 - - -
23/04:00pm - - - - - NNE 26 39 14 21 - - -
23/03:30pm - - - - - N 19 32 10 17 - - -
23/03:00pm - - - - - NNE 22 33 12 18 - - -
23/02:30pm - - - - - NNE 20 35 11 19 - - -
23/02:00pm - - - - - NNE 20 32 11 17 - - -
23/01:30pm - - - - - NNE 20 26 11 14 - - -
23/01:00pm - - - - - NNE 17 26 9 14 - - -
23/12:30pm - - - - - N 15 22 8 12 - - -
23/12:00pm - - - - - N 17 24 9 13 - - -
23/11:30am - - - - - N 17 26 9 14 - - -
23/11:00am - - - - - N 13 22 7 12 - - -
23/10:30am - - - - - N 13 20 7 11 - - -
23/10:00am - - - - - N 17 24 9 13 - - -
23/09:30am - - - - - N 15 20 8 11 - - -
23/09:00am - - - - - N 15 20 8 11 - - -
23/08:30am - - - - - N 15 22 8 12 - - -
23/08:00am - - - - - N 15 26 8 14 - - -
23/07:30am - - - - - N 17 24 9 13 - - -
23/07:00am - - - - - N 19 26 10 14 - - -
23/06:30am - - - - - N 20 28 11 15 - - -
23/06:00am - - - - - N 19 26 10 14 - - -
23/05:30am - - - - - N 19 28 10 15 - - -
23/05:00am - - - - - N 19 26 10 14 - - -
23/04:30am - - - - - N 17 22 9 12 - - -
23/04:00am - - - - - N 13 17 7 9 - - -
23/03:30am - - - - - NNE 9 11 5 6 - - -
23/03:00am - - - - - NW 6 7 3 4 - - -
23/02:30am - - - - - WNW 6 7 3 4 - - -
23/02:00am - - - - - W 6 9 3 5 - - -
23/01:30am - - - - - SW 7 9 4 5 - - -
23/01:00am - - - - - NW 6 7 3 4 - - -
23/12:30am - - - - - NW 6 7 3 4 - - -
23/12:00am - - - - - NNW 11 15 6 8 - - -
 
Date/Time
EST
Temp
°C
App
Temp
°C
Dew
Point
°C
Rel
Hum
%
Delta-T
°C
Wind Press
QNH
hPa
Press
MSL
hPa
Rain since
9am
mm
Dir  Spd
km/h
Gust
km/h
Spd
kts
Gust
kts
22/11:30pm - - - - - N 13 17 7 9 - - -
22/11:00pm - - - - - N 15 20 8 11 - - -
22/10:30pm - - - - - N 13 20 7 11 - - -
22/10:00pm - - - - - N 19 26 10 14 - - -
22/09:30pm - - - - - N 19 26 10 14 - - -
22/09:00pm - - - - - NNE 19 26 10 14 - - -
22/08:30pm - - - - - NNE 19 28 10 15 - - -
22/08:00pm - - - - - NNE 17 26 9 14 - - -
22/07:30pm - - - - - NNE 20 30 11 16 - - -
22/07:00pm - - - - - NNE 20 33 11 18 - - -
22/06:30pm - - - - - NNE 17 26 9 14 - - -
22/06:00pm - - - - - NNE 19 24 10 13 - - -
22/05:30pm - - - - - NNE 17 24 9 13 - - -
22/05:00pm - - - - - NNE 17 24 9 13 - - -
22/04:30pm - - - - - NNE 15 20 8 11 - - -

Other Formats:

Comma delimited format used in spreadsheet applications
http://www.bom.gov.au/fwo/IDN60801/IDN60801.95768.axf

JavaScript Object Notation format (JSON) in row-major order
http://www.bom.gov.au/fwo/IDN60801/IDN60801.95768.json